sensor_id;sensor_type;location;lat;lon;timestamp;P1;durP1;ratioP1;P2;durP2;ratioP2
43843;SDS011;29497;48.046;7.864;2022-08-30T00:01:03;9.53;;;6.00;;
43843;SDS011;29497;48.046;7.864;2022-08-30T00:03:31;9.10;;;6.70;;
43843;SDS011;29497;48.046;7.864;2022-08-30T00:06:00;7.20;;;6.50;;
43843;SDS011;29497;48.046;7.864;2022-08-30T00:08:27;7.30;;;6.47;;
43843;SDS011;29497;48.046;7.864;2022-08-30T00:10:54;8.17;;;6.30;;
43843;SDS011;29497;48.046;7.864;2022-08-30T00:13:21;8.40;;;6.50;;
43843;SDS011;29497;48.046;7.864;2022-08-30T00:15:48;7.03;;;6.33;;
43843;SDS011;29497;48.046;7.864;2022-08-30T00:18:17;7.43;;;6.47;;
43843;SDS011;29497;48.046;7.864;2022-08-30T00:20:45;7.97;;;6.50;;
43843;SDS011;29497;48.046;7.864;2022-08-30T00:23:14;7.73;;;6.77;;
43843;SDS011;29497;48.046;7.864;2022-08-30T00:25:41;7.50;;;6.30;;
43843;SDS011;29497;48.046;7.864;2022-08-30T00:28:08;7.97;;;6.33;;
43843;SDS011;29497;48.046;7.864;2022-08-30T00:30:35;7.33;;;6.50;;
43843;SDS011;29497;48.046;7.864;2022-08-30T00:33:03;7.03;;;6.33;;
43843;SDS011;29497;48.046;7.864;2022-08-30T00:35:31;7.27;;;6.57;;
43843;SDS011;29497;48.046;7.864;2022-08-30T00:37:58;9.37;;;6.67;;
43843;SDS011;29497;48.046;7.864;2022-08-30T00:40:25;7.50;;;6.23;;
43843;SDS011;29497;48.046;7.864;2022-08-30T00:42:53;7.57;;;6.50;;
43843;SDS011;29497;48.046;7.864;2022-08-30T00:45:24;7.70;;;6.90;;
43843;SDS011;29497;48.046;7.864;2022-08-30T00:47:52;7.53;;;6.37;;
43843;SDS011;29497;48.046;7.864;2022-08-30T00:50:19;8.23;;;6.70;;
43843;SDS011;29497;48.046;7.864;2022-08-30T00:52:51;7.90;;;6.73;;
43843;SDS011;29497;48.046;7.864;2022-08-30T00:55:21;8.90;;;6.80;;
43843;SDS011;29497;48.046;7.864;2022-08-30T00:57:51;9.57;;;7.00;;
43843;SDS011;29497;48.046;7.864;2022-08-30T01:00:21;7.23;;;6.37;;
43843;SDS011;29497;48.046;7.864;2022-08-30T01:02:48;7.60;;;6.90;;
43843;SDS011;29497;48.046;7.864;2022-08-30T01:05:14;7.20;;;6.50;;
43843;SDS011;29497;48.046;7.864;2022-08-30T01:07:41;7.90;;;7.10;;
43843;SDS011;29497;48.046;7.864;2022-08-30T01:10:10;7.50;;;6.70;;
43843;SDS011;29497;48.046;7.864;2022-08-30T01:12:39;8.87;;;7.07;;
43843;SDS011;29497;48.046;7.864;2022-08-30T01:15:08;8.90;;;7.37;;
43843;SDS011;29497;48.046;7.864;2022-08-30T01:17:38;7.87;;;6.90;;
43843;SDS011;29497;48.046;7.864;2022-08-30T01:20:06;10.47;;;6.63;;
43843;SDS011;29497;48.046;7.864;2022-08-30T01:22:36;8.53;;;6.93;;
43843;SDS011;29497;48.046;7.864;2022-08-30T01:25:10;9.37;;;7.50;;
43843;SDS011;29497;48.046;7.864;2022-08-30T01:27:39;8.00;;;6.93;;
43843;SDS011;29497;48.046;7.864;2022-08-30T01:30:10;8.50;;;7.37;;
43843;SDS011;29497;48.046;7.864;2022-08-30T01:32:39;10.40;;;7.37;;
43843;SDS011;29497;48.046;7.864;2022-08-30T01:35:07;7.87;;;6.90;;
43843;SDS011;29497;48.046;7.864;2022-08-30T01:37:36;8.77;;;7.00;;
43843;SDS011;29497;48.046;7.864;2022-08-30T01:40:04;9.17;;;6.73;;
43843;SDS011;29497;48.046;7.864;2022-08-30T01:42:32;9.23;;;7.10;;
43843;SDS011;29497;48.046;7.864;2022-08-30T01:44:59;7.73;;;6.93;;
43843;SDS011;29497;48.046;7.864;2022-08-30T01:47:25;8.80;;;6.70;;
43843;SDS011;29497;48.046;7.864;2022-08-30T01:49:52;8.37;;;7.30;;
43843;SDS011;29497;48.046;7.864;2022-08-30T01:52:19;10.70;;;7.20;;
43843;SDS011;29497;48.046;7.864;2022-08-30T01:54:45;7.53;;;6.67;;
43843;SDS011;29497;48.046;7.864;2022-08-30T01:57:16;8.43;;;6.27;;
43843;SDS011;29497;48.046;7.864;2022-08-30T01:59:46;8.67;;;6.70;;
43843;SDS011;29497;48.046;7.864;2022-08-30T02:02:14;7.97;;;6.47;;
43843;SDS011;29497;48.046;7.864;2022-08-30T02:04:43;8.30;;;6.30;;
43843;SDS011;29497;48.046;7.864;2022-08-30T02:07:10;8.40;;;6.90;;
43843;SDS011;29497;48.046;7.864;2022-08-30T02:09:37;7.33;;;6.37;;
43843;SDS011;29497;48.046;7.864;2022-08-30T02:12:04;8.17;;;6.70;;
43843;SDS011;29497;48.046;7.864;2022-08-30T02:14:32;7.60;;;6.80;;
43843;SDS011;29497;48.046;7.864;2022-08-30T02:17:00;8.40;;;6.60;;
43843;SDS011;29497;48.046;7.864;2022-08-30T02:19:27;7.03;;;6.33;;
43843;SDS011;29497;48.046;7.864;2022-08-30T02:21:54;9.23;;;6.73;;
43843;SDS011;29497;48.046;7.864;2022-08-30T02:24:21;8.30;;;7.30;;
43843;SDS011;29497;48.046;7.864;2022-08-30T02:26:48;7.53;;;6.47;;
43843;SDS011;29497;48.046;7.864;2022-08-30T02:29:17;8.03;;;7.00;;
43843;SDS011;29497;48.046;7.864;2022-08-30T02:31:44;8.33;;;6.67;;
43843;SDS011;29497;48.046;7.864;2022-08-30T02:34:11;8.10;;;6.23;;
43843;SDS011;29497;48.046;7.864;2022-08-30T02:36:38;7.73;;;6.77;;
43843;SDS011;29497;48.046;7.864;2022-08-30T02:39:05;8.80;;;6.80;;
43843;SDS011;29497;48.046;7.864;2022-08-30T02:41:32;8.27;;;7.00;;
43843;SDS011;29497;48.046;7.864;2022-08-30T02:43:59;9.07;;;6.87;;
43843;SDS011;29497;48.046;7.864;2022-08-30T02:46:25;7.47;;;6.67;;
43843;SDS011;29497;48.046;7.864;2022-08-30T02:48:53;7.00;;;6.30;;
43843;SDS011;29497;48.046;7.864;2022-08-30T02:51:21;8.07;;;6.60;;
43843;SDS011;29497;48.046;7.864;2022-08-30T02:53:47;7.00;;;6.17;;
43843;SDS011;29497;48.046;7.864;2022-08-30T02:56:14;8.70;;;6.37;;
43843;SDS011;29497;48.046;7.864;2022-08-30T02:58:41;7.87;;;6.50;;
43843;SDS011;29497;48.046;7.864;2022-08-30T03:01:09;7.60;;;6.03;;
43843;SDS011;29497;48.046;7.864;2022-08-30T03:03:37;7.33;;;6.03;;
43843;SDS011;29497;48.046;7.864;2022-08-30T03:06:04;7.47;;;5.40;;
43843;SDS011;29497;48.046;7.864;2022-08-30T03:08:32;7.60;;;5.57;;
43843;SDS011;29497;48.046;7.864;2022-08-30T03:10:59;8.23;;;5.50;;
43843;SDS011;29497;48.046;7.864;2022-08-30T03:13:26;6.60;;;5.43;;
43843;SDS011;29497;48.046;7.864;2022-08-30T03:15:53;7.13;;;4.87;;
43843;SDS011;29497;48.046;7.864;2022-08-30T03:18:20;6.57;;;5.27;;
43843;SDS011;29497;48.046;7.864;2022-08-30T03:20:48;6.10;;;4.70;;
43843;SDS011;29497;48.046;7.864;2022-08-30T03:23:15;8.97;;;5.53;;
43843;SDS011;29497;48.046;7.864;2022-08-30T03:25:44;5.53;;;4.67;;
43843;SDS011;29497;48.046;7.864;2022-08-30T03:28:11;6.03;;;4.70;;
43843;SDS011;29497;48.046;7.864;2022-08-30T03:30:37;6.43;;;4.50;;
43843;SDS011;29497;48.046;7.864;2022-08-30T03:33:04;9.87;;;4.77;;
43843;SDS011;29497;48.046;7.864;2022-08-30T03:35:31;6.20;;;4.37;;
43843;SDS011;29497;48.046;7.864;2022-08-30T03:37:57;7.70;;;5.30;;
43843;SDS011;29497;48.046;7.864;2022-08-30T03:40:24;6.60;;;4.47;;
43843;SDS011;29497;48.046;7.864;2022-08-30T03:42:52;5.87;;;4.60;;
43843;SDS011;29497;48.046;7.864;2022-08-30T03:45:19;6.87;;;4.87;;
43843;SDS011;29497;48.046;7.864;2022-08-30T03:47:45;9.20;;;5.80;;
43843;SDS011;29497;48.046;7.864;2022-08-30T03:50:12;9.27;;;6.63;;
43843;SDS011;29497;48.046;7.864;2022-08-30T03:52:40;7.17;;;6.03;;
43843;SDS011;29497;48.046;7.864;2022-08-30T03:55:07;6.40;;;5.37;;
43843;SDS011;29497;48.046;7.864;2022-08-30T03:57:34;8.83;;;5.40;;
43843;SDS011;29497;48.046;7.864;2022-08-30T04:00:03;6.77;;;5.03;;
43843;SDS011;29497;48.046;7.864;2022-08-30T04:02:30;6.70;;;5.33;;
43843;SDS011;29497;48.046;7.864;2022-08-30T04:04:57;7.80;;;5.67;;
43843;SDS011;29497;48.046;7.864;2022-08-30T04:07:23;9.30;;;5.17;;
43843;SDS011;29497;48.046;7.864;2022-08-30T04:09:50;5.83;;;5.20;;
43843;SDS011;29497;48.046;7.864;2022-08-30T04:12:17;6.83;;;5.50;;
43843;SDS011;29497;48.046;7.864;2022-08-30T04:14:43;7.60;;;5.20;;
43843;SDS011;29497;48.046;7.864;2022-08-30T04:17:11;8.30;;;6.20;;
43843;SDS011;29497;48.046;7.864;2022-08-30T04:19:37;7.83;;;5.60;;
43843;SDS011;29497;48.046;7.864;2022-08-30T04:22:04;7.10;;;5.37;;
43843;SDS011;29497;48.046;7.864;2022-08-30T04:24:30;6.77;;;5.40;;
43843;SDS011;29497;48.046;7.864;2022-08-30T04:26:58;6.17;;;5.33;;
43843;SDS011;29497;48.046;7.864;2022-08-30T04:29:25;6.00;;;5.30;;
43843;SDS011;29497;48.046;7.864;2022-08-30T04:31:52;6.73;;;5.20;;
43843;SDS011;29497;48.046;7.864;2022-08-30T04:34:20;6.97;;;5.30;;
43843;SDS011;29497;48.046;7.864;2022-08-30T04:36:46;7.13;;;5.10;;
43843;SDS011;29497;48.046;7.864;2022-08-30T04:39:14;5.03;;;4.40;;
43843;SDS011;29497;48.046;7.864;2022-08-30T04:41:40;6.13;;;4.83;;
43843;SDS011;29497;48.046;7.864;2022-08-30T04:44:07;6.17;;;4.70;;
43843;SDS011;29497;48.046;7.864;2022-08-30T04:46:33;8.27;;;5.10;;
43843;SDS011;29497;48.046;7.864;2022-08-30T04:49:01;8.47;;;5.00;;
43843;SDS011;29497;48.046;7.864;2022-08-30T04:51:29;6.00;;;4.70;;
43843;SDS011;29497;48.046;7.864;2022-08-30T04:53:56;6.13;;;4.87;;
43843;SDS011;29497;48.046;7.864;2022-08-30T04:56:22;6.80;;;5.17;;
43843;SDS011;29497;48.046;7.864;2022-08-30T04:58:50;7.93;;;4.90;;
43843;SDS011;29497;48.046;7.864;2022-08-30T05:01:20;5.63;;;5.03;;
43843;SDS011;29497;48.046;7.864;2022-08-30T05:03:48;8.07;;;5.50;;
43843;SDS011;29497;48.046;7.864;2022-08-30T05:06:16;6.40;;;4.77;;
43843;SDS011;29497;48.046;7.864;2022-08-30T05:08:45;6.27;;;5.00;;
43843;SDS011;29497;48.046;7.864;2022-08-30T05:11:13;7.83;;;5.27;;
43843;SDS011;29497;48.046;7.864;2022-08-30T05:13:40;6.30;;;5.03;;
43843;SDS011;29497;48.046;7.864;2022-08-30T05:16:07;6.20;;;5.27;;
43843;SDS011;29497;48.046;7.864;2022-08-30T05:18:34;7.03;;;5.30;;
43843;SDS011;29497;48.046;7.864;2022-08-30T05:21:02;5.93;;;5.43;;
43843;SDS011;29497;48.046;7.864;2022-08-30T05:23:29;8.17;;;5.83;;
43843;SDS011;29497;48.046;7.864;2022-08-30T05:25:57;8.60;;;6.10;;
43843;SDS011;29497;48.046;7.864;2022-08-30T05:28:24;6.97;;;5.70;;
43843;SDS011;29497;48.046;7.864;2022-08-30T05:30:51;6.00;;;5.30;;
43843;SDS011;29497;48.046;7.864;2022-08-30T05:33:17;6.57;;;5.83;;
43843;SDS011;29497;48.046;7.864;2022-08-30T05:35:44;7.13;;;5.10;;
43843;SDS011;29497;48.046;7.864;2022-08-30T05:38:10;7.10;;;5.37;;
43843;SDS011;29497;48.046;7.864;2022-08-30T05:40:38;9.00;;;5.30;;
43843;SDS011;29497;48.046;7.864;2022-08-30T05:43:07;5.43;;;4.93;;
43843;SDS011;29497;48.046;7.864;2022-08-30T05:45:35;7.00;;;5.67;;
43843;SDS011;29497;48.046;7.864;2022-08-30T05:48:02;7.53;;;5.93;;
43843;SDS011;29497;48.046;7.864;2022-08-30T05:50:29;9.97;;;6.13;;
43843;SDS011;29497;48.046;7.864;2022-08-30T05:52:56;6.43;;;5.70;;
43843;SDS011;29497;48.046;7.864;2022-08-30T05:55:22;7.23;;;5.67;;
43843;SDS011;29497;48.046;7.864;2022-08-30T05:57:49;6.50;;;5.27;;
43843;SDS011;29497;48.046;7.864;2022-08-30T06:00:17;6.67;;;5.20;;
43843;SDS011;29497;48.046;7.864;2022-08-30T06:02:44;7.20;;;5.10;;
43843;SDS011;29497;48.046;7.864;2022-08-30T06:05:11;7.17;;;5.40;;
43843;SDS011;29497;48.046;7.864;2022-08-30T06:07:37;7.93;;;5.43;;
43843;SDS011;29497;48.046;7.864;2022-08-30T06:10:04;6.07;;;5.20;;
43843;SDS011;29497;48.046;7.864;2022-08-30T06:12:31;10.20;;;5.47;;
43843;SDS011;29497;48.046;7.864;2022-08-30T06:14:58;9.47;;;5.60;;
43843;SDS011;29497;48.046;7.864;2022-08-30T06:17:26;7.30;;;5.70;;
43843;SDS011;29497;48.046;7.864;2022-08-30T06:19:53;8.17;;;6.00;;
43843;SDS011;29497;48.046;7.864;2022-08-30T06:22:19;6.73;;;5.93;;
43843;SDS011;29497;48.046;7.864;2022-08-30T06:24:46;9.33;;;5.80;;
43843;SDS011;29497;48.046;7.864;2022-08-30T06:27:12;8.70;;;6.10;;
43843;SDS011;29497;48.046;7.864;2022-08-30T06:29:39;7.13;;;6.03;;
43843;SDS011;29497;48.046;7.864;2022-08-30T06:32:06;6.70;;;6.07;;
43843;SDS011;29497;48.046;7.864;2022-08-30T06:34:33;9.00;;;5.97;;
43843;SDS011;29497;48.046;7.864;2022-08-30T06:37:00;10.53;;;6.83;;
43843;SDS011;29497;48.046;7.864;2022-08-30T06:39:26;8.17;;;6.63;;
43843;SDS011;29497;48.046;7.864;2022-08-30T06:41:53;8.93;;;6.80;;
43843;SDS011;29497;48.046;7.864;2022-08-30T06:44:20;7.37;;;6.17;;
43843;SDS011;29497;48.046;7.864;2022-08-30T06:46:47;9.40;;;6.30;;
43843;SDS011;29497;48.046;7.864;2022-08-30T06:49:13;7.17;;;6.47;;
43843;SDS011;29497;48.046;7.864;2022-08-30T06:51:41;8.87;;;6.57;;
43843;SDS011;29497;48.046;7.864;2022-08-30T06:54:08;7.40;;;6.60;;
43843;SDS011;29497;48.046;7.864;2022-08-30T06:56:35;8.80;;;6.97;;
43843;SDS011;29497;48.046;7.864;2022-08-30T06:59:02;7.40;;;6.43;;
43843;SDS011;29497;48.046;7.864;2022-08-30T07:01:28;8.93;;;6.80;;
43843;SDS011;29497;48.046;7.864;2022-08-30T07:03:55;8.90;;;6.87;;
43843;SDS011;29497;48.046;7.864;2022-08-30T07:06:23;9.10;;;6.77;;
43843;SDS011;29497;48.046;7.864;2022-08-30T07:08:51;7.43;;;6.33;;
43843;SDS011;29497;48.046;7.864;2022-08-30T07:11:31;9.20;;;6.60;;
43843;SDS011;29497;48.046;7.864;2022-08-30T07:14:00;8.43;;;6.43;;
43843;SDS011;29497;48.046;7.864;2022-08-30T07:16:27;9.33;;;6.83;;
43843;SDS011;29497;48.046;7.864;2022-08-30T07:18:55;8.97;;;6.40;;
43843;SDS011;29497;48.046;7.864;2022-08-30T07:21:24;7.17;;;6.40;;
43843;SDS011;29497;48.046;7.864;2022-08-30T07:23:55;8.17;;;6.27;;
43843;SDS011;29497;48.046;7.864;2022-08-30T07:26:29;9.30;;;6.27;;
43843;SDS011;29497;48.046;7.864;2022-08-30T07:28:58;7.67;;;6.03;;
43843;SDS011;29497;48.046;7.864;2022-08-30T07:31:25;7.27;;;5.80;;
43843;SDS011;29497;48.046;7.864;2022-08-30T07:33:53;8.87;;;6.07;;
43843;SDS011;29497;48.046;7.864;2022-08-30T07:36:20;9.30;;;6.33;;
43843;SDS011;29497;48.046;7.864;2022-08-30T07:38:47;9.37;;;6.40;;
43843;SDS011;29497;48.046;7.864;2022-08-30T07:41:17;8.10;;;6.57;;
43843;SDS011;29497;48.046;7.864;2022-08-30T07:43:46;7.17;;;6.13;;
43843;SDS011;29497;48.046;7.864;2022-08-30T07:46:13;8.70;;;6.20;;
43843;SDS011;29497;48.046;7.864;2022-08-30T07:48:40;9.27;;;6.27;;
43843;SDS011;29497;48.046;7.864;2022-08-30T07:51:10;9.23;;;6.30;;
43843;SDS011;29497;48.046;7.864;2022-08-30T07:53:39;7.17;;;5.60;;
43843;SDS011;29497;48.046;7.864;2022-08-30T07:56:05;9.13;;;6.20;;
43843;SDS011;29497;48.046;7.864;2022-08-30T07:58:34;11.00;;;6.33;;
43843;SDS011;29497;48.046;7.864;2022-08-30T08:01:01;10.13;;;6.00;;
43843;SDS011;29497;48.046;7.864;2022-08-30T08:03:28;7.53;;;6.33;;
43843;SDS011;29497;48.046;7.864;2022-08-30T08:05:55;8.20;;;5.80;;
43843;SDS011;29497;48.046;7.864;2022-08-30T08:08:22;10.20;;;5.90;;
43843;SDS011;29497;48.046;7.864;2022-08-30T08:10:49;8.07;;;6.23;;
43843;SDS011;29497;48.046;7.864;2022-08-30T08:13:15;8.00;;;6.33;;
43843;SDS011;29497;48.046;7.864;2022-08-30T08:15:43;9.13;;;6.13;;
43843;SDS011;29497;48.046;7.864;2022-08-30T08:18:10;9.03;;;6.10;;
43843;SDS011;29497;48.046;7.864;2022-08-30T08:20:37;7.50;;;6.10;;
43843;SDS011;29497;48.046;7.864;2022-08-30T08:23:03;8.70;;;6.50;;
43843;SDS011;29497;48.046;7.864;2022-08-30T08:25:30;8.07;;;6.17;;
43843;SDS011;29497;48.046;7.864;2022-08-30T08:27:57;8.73;;;5.80;;
43843;SDS011;29497;48.046;7.864;2022-08-30T08:30:23;8.17;;;5.80;;
43843;SDS011;29497;48.046;7.864;2022-08-30T08:32:51;6.97;;;5.53;;
43843;SDS011;29497;48.046;7.864;2022-08-30T08:35:18;8.27;;;5.77;;
43843;SDS011;29497;48.046;7.864;2022-08-30T08:37:45;7.53;;;6.00;;
43843;SDS011;29497;48.046;7.864;2022-08-30T08:40:13;7.57;;;6.00;;
43843;SDS011;29497;48.046;7.864;2022-08-30T08:42:46;8.40;;;6.20;;
43843;SDS011;29497;48.046;7.864;2022-08-30T08:45:21;7.27;;;6.47;;
43843;SDS011;29497;48.046;7.864;2022-08-30T08:47:55;9.13;;;6.90;;
43843;SDS011;29497;48.046;7.864;2022-08-30T08:50:26;13.17;;;6.77;;
43843;SDS011;29497;48.046;7.864;2022-08-30T08:52:54;7.13;;;5.90;;
43843;SDS011;29497;48.046;7.864;2022-08-30T08:55:41;9.80;;;6.97;;
43843;SDS011;29497;48.046;7.864;2022-08-30T08:58:14;7.10;;;6.40;;
43843;SDS011;29497;48.046;7.864;2022-08-30T09:00:47;8.70;;;6.13;;
43843;SDS011;29497;48.046;7.864;2022-08-30T09:03:15;8.93;;;6.03;;
43843;SDS011;29497;48.046;7.864;2022-08-30T09:05:46;6.97;;;6.23;;
43843;SDS011;29497;48.046;7.864;2022-08-30T09:08:14;7.10;;;6.47;;
43843;SDS011;29497;48.046;7.864;2022-08-30T09:10:44;8.13;;;6.33;;
43843;SDS011;29497;48.046;7.864;2022-08-30T09:13:16;7.60;;;6.40;;
43843;SDS011;29497;48.046;7.864;2022-08-30T09:15:42;8.23;;;5.90;;
43843;SDS011;29497;48.046;7.864;2022-08-30T09:18:09;7.03;;;6.33;;
43843;SDS011;29497;48.046;7.864;2022-08-30T09:20:39;7.07;;;6.20;;
43843;SDS011;29497;48.046;7.864;2022-08-30T09:23:19;6.77;;;6.03;;
43843;SDS011;29497;48.046;7.864;2022-08-30T09:25:49;7.63;;;6.30;;
43843;SDS011;29497;48.046;7.864;2022-08-30T09:28:19;7.60;;;6.53;;
43843;SDS011;29497;48.046;7.864;2022-08-30T09:30:58;8.50;;;6.40;;
43843;SDS011;29497;48.046;7.864;2022-08-30T09:33:28;7.63;;;6.37;;
43843;SDS011;29497;48.046;7.864;2022-08-30T09:35:58;8.17;;;6.37;;
43843;SDS011;29497;48.046;7.864;2022-08-30T09:38:38;7.97;;;6.50;;
43843;SDS011;29497;48.046;7.864;2022-08-30T09:44:03;8.17;;;5.60;;
43843;SDS011;29497;48.046;7.864;2022-08-30T09:46:33;6.50;;;5.90;;
43843;SDS011;29497;48.046;7.864;2022-08-30T09:49:13;9.13;;;6.43;;
43843;SDS011;29497;48.046;7.864;2022-08-30T09:52:02;8.83;;;6.30;;
43843;SDS011;29497;48.046;7.864;2022-08-30T09:54:37;7.53;;;5.87;;
43843;SDS011;29497;48.046;7.864;2022-08-30T09:57:12;7.30;;;5.90;;
43843;SDS011;29497;48.046;7.864;2022-08-30T09:59:47;9.23;;;5.80;;
43843;SDS011;29497;48.046;7.864;2022-08-30T10:02:29;7.40;;;6.60;;
43843;SDS011;29497;48.046;7.864;2022-08-30T10:05:08;7.07;;;6.13;;
43843;SDS011;29497;48.046;7.864;2022-08-30T10:07:44;7.07;;;5.90;;
43843;SDS011;29497;48.046;7.864;2022-08-30T10:10:21;6.37;;;5.57;;
43843;SDS011;29497;48.046;7.864;2022-08-30T10:12:58;8.37;;;5.67;;
43843;SDS011;29497;48.046;7.864;2022-08-30T10:15:31;8.57;;;6.23;;
43843;SDS011;29497;48.046;7.864;2022-08-30T10:18:05;7.57;;;6.20;;
43843;SDS011;29497;48.046;7.864;2022-08-30T10:20:41;7.30;;;6.00;;
43843;SDS011;29497;48.046;7.864;2022-08-30T10:23:19;9.37;;;6.20;;
43843;SDS011;29497;48.046;7.864;2022-08-30T10:25:51;11.57;;;5.97;;
43843;SDS011;29497;48.046;7.864;2022-08-30T10:28:24;9.80;;;6.43;;
43843;SDS011;29497;48.046;7.864;2022-08-30T10:30:57;7.03;;;5.70;;
43843;SDS011;29497;48.046;7.864;2022-08-30T10:33:29;8.80;;;6.30;;
43843;SDS011;29497;48.046;7.864;2022-08-30T10:36:02;8.37;;;6.00;;
43843;SDS011;29497;48.046;7.864;2022-08-30T10:38:34;7.63;;;6.00;;
43843;SDS011;29497;48.046;7.864;2022-08-30T10:41:05;7.30;;;6.17;;
43843;SDS011;29497;48.046;7.864;2022-08-30T10:43:48;8.40;;;6.13;;
43843;SDS011;29497;48.046;7.864;2022-08-30T10:46:23;9.60;;;6.33;;
43843;SDS011;29497;48.046;7.864;2022-08-30T10:48:54;7.40;;;6.43;;
43843;SDS011;29497;48.046;7.864;2022-08-30T10:51:25;8.27;;;6.27;;
43843;SDS011;29497;48.046;7.864;2022-08-30T10:54:00;9.90;;;6.23;;
43843;SDS011;29497;48.046;7.864;2022-08-30T10:56:33;7.80;;;6.00;;
43843;SDS011;29497;48.046;7.864;2022-08-30T10:59:03;6.30;;;5.70;;
43843;SDS011;29497;48.046;7.864;2022-08-30T11:01:33;6.80;;;6.10;;
43843;SDS011;29497;48.046;7.864;2022-08-30T11:04:28;7.17;;;6.03;;
43843;SDS011;29497;48.046;7.864;2022-08-30T11:07:18;6.77;;;6.00;;
43843;SDS011;29497;48.046;7.864;2022-08-30T11:12:49;7.00;;;6.33;;
43843;SDS011;29497;48.046;7.864;2022-08-30T11:15:23;8.23;;;5.67;;
43843;SDS011;29497;48.046;7.864;2022-08-30T11:17:55;9.23;;;5.93;;
43843;SDS011;29497;48.046;7.864;2022-08-30T11:20:29;7.87;;;5.93;;
43843;SDS011;29497;48.046;7.864;2022-08-30T11:25:56;8.13;;;6.00;;
43843;SDS011;29497;48.046;7.864;2022-08-30T11:31:38;7.03;;;6.10;;
43843;SDS011;29497;48.046;7.864;2022-08-30T11:34:06;9.97;;;6.27;;
43843;SDS011;29497;48.046;7.864;2022-08-30T11:39:40;8.30;;;6.00;;
43843;SDS011;29497;48.046;7.864;2022-08-30T11:51:22;9.93;;;5.50;;
43843;SDS011;29497;48.046;7.864;2022-08-30T11:54:17;7.37;;;5.60;;
43843;SDS011;29497;48.046;7.864;2022-08-30T11:56:54;7.43;;;6.10;;
43843;SDS011;29497;48.046;7.864;2022-08-30T11:59:31;9.83;;;5.70;;
43843;SDS011;29497;48.046;7.864;2022-08-30T12:02:08;6.87;;;5.87;;
43843;SDS011;29497;48.046;7.864;2022-08-30T12:04:36;8.13;;;5.90;;
43843;SDS011;29497;48.046;7.864;2022-08-30T12:07:09;6.80;;;5.97;;
43843;SDS011;29497;48.046;7.864;2022-08-30T12:12:43;8.53;;;5.90;;
43843;SDS011;29497;48.046;7.864;2022-08-30T12:15:24;6.03;;;5.17;;
43843;SDS011;29497;48.046;7.864;2022-08-30T12:17:55;8.63;;;6.10;;
43843;SDS011;29497;48.046;7.864;2022-08-30T12:20:42;7.73;;;5.50;;
43843;SDS011;29497;48.046;7.864;2022-08-30T12:23:16;7.87;;;5.40;;
43843;SDS011;29497;48.046;7.864;2022-08-30T12:25:45;6.67;;;5.23;;
43843;SDS011;29497;48.046;7.864;2022-08-30T12:28:14;6.37;;;5.40;;
43843;SDS011;29497;48.046;7.864;2022-08-30T12:30:46;7.23;;;5.90;;
43843;SDS011;29497;48.046;7.864;2022-08-30T12:33:21;7.87;;;5.50;;
43843;SDS011;29497;48.046;7.864;2022-08-30T12:35:50;8.77;;;6.03;;
43843;SDS011;29497;48.046;7.864;2022-08-30T12:38:19;6.43;;;5.83;;
43843;SDS011;29497;48.046;7.864;2022-08-30T12:40:47;8.27;;;5.73;;
43843;SDS011;29497;48.046;7.864;2022-08-30T12:43:21;8.30;;;5.47;;
43843;SDS011;29497;48.046;7.864;2022-08-30T12:45:53;7.63;;;5.90;;
43843;SDS011;29497;48.046;7.864;2022-08-30T12:48:23;7.80;;;5.83;;
43843;SDS011;29497;48.046;7.864;2022-08-30T12:50:51;7.53;;;5.63;;
43843;SDS011;29497;48.046;7.864;2022-08-30T12:53:21;6.60;;;5.70;;
43843;SDS011;29497;48.046;7.864;2022-08-30T12:55:53;6.97;;;5.33;;
43843;SDS011;29497;48.046;7.864;2022-08-30T12:58:33;5.97;;;5.33;;
43843;SDS011;29497;48.046;7.864;2022-08-30T13:01:23;7.17;;;5.43;;
43843;SDS011;29497;48.046;7.864;2022-08-30T13:03:55;7.50;;;5.77;;
43843;SDS011;29497;48.046;7.864;2022-08-30T13:06:37;6.87;;;5.40;;
43843;SDS011;29497;48.046;7.864;2022-08-30T13:09:07;6.80;;;5.63;;
43843;SDS011;29497;48.046;7.864;2022-08-30T13:11:36;7.07;;;5.57;;
43843;SDS011;29497;48.046;7.864;2022-08-30T13:14:19;7.50;;;6.00;;
43843;SDS011;29497;48.046;7.864;2022-08-30T13:17:18;8.90;;;6.17;;
43843;SDS011;29497;48.046;7.864;2022-08-30T13:19:57;5.80;;;5.20;;
43843;SDS011;29497;48.046;7.864;2022-08-30T13:22:29;7.23;;;5.37;;
43843;SDS011;29497;48.046;7.864;2022-08-30T13:24:57;7.33;;;6.03;;
43843;SDS011;29497;48.046;7.864;2022-08-30T13:27:25;6.20;;;5.40;;
43843;SDS011;29497;48.046;7.864;2022-08-30T13:29:53;8.30;;;5.43;;
43843;SDS011;29497;48.046;7.864;2022-08-30T13:32:21;6.77;;;5.40;;
43843;SDS011;29497;48.046;7.864;2022-08-30T13:34:49;6.87;;;6.00;;
43843;SDS011;29497;48.046;7.864;2022-08-30T13:37:17;6.60;;;5.90;;
43843;SDS011;29497;48.046;7.864;2022-08-30T13:39:45;8.40;;;5.80;;
43843;SDS011;29497;48.046;7.864;2022-08-30T13:42:12;7.33;;;5.87;;
43843;SDS011;29497;48.046;7.864;2022-08-30T13:44:38;8.00;;;5.83;;
43843;SDS011;29497;48.046;7.864;2022-08-30T13:47:05;7.43;;;5.57;;
43843;SDS011;29497;48.046;7.864;2022-08-30T13:49:34;8.73;;;5.57;;
43843;SDS011;29497;48.046;7.864;2022-08-30T13:52:04;7.50;;;5.67;;
43843;SDS011;29497;48.046;7.864;2022-08-30T13:54:33;6.33;;;5.67;;
43843;SDS011;29497;48.046;7.864;2022-08-30T13:56:59;7.67;;;6.20;;
43843;SDS011;29497;48.046;7.864;2022-08-30T13:59:26;6.87;;;6.13;;
43843;SDS011;29497;48.046;7.864;2022-08-30T14:01:57;8.53;;;5.63;;
43843;SDS011;29497;48.046;7.864;2022-08-30T14:04:23;6.87;;;6.07;;
43843;SDS011;29497;48.046;7.864;2022-08-30T14:06:51;8.00;;;5.93;;
43843;SDS011;29497;48.046;7.864;2022-08-30T14:09:18;7.83;;;5.60;;
43843;SDS011;29497;48.046;7.864;2022-08-30T14:11:45;7.87;;;6.20;;
43843;SDS011;29497;48.046;7.864;2022-08-30T14:14:11;7.30;;;5.77;;
43843;SDS011;29497;48.046;7.864;2022-08-30T14:16:39;6.07;;;5.43;;
43843;SDS011;29497;48.046;7.864;2022-08-30T14:19:07;7.40;;;5.43;;
43843;SDS011;29497;48.046;7.864;2022-08-30T14:21:36;5.87;;;5.17;;
43843;SDS011;29497;48.046;7.864;2022-08-30T14:24:04;6.70;;;5.67;;
43843;SDS011;29497;48.046;7.864;2022-08-30T14:26:32;6.20;;;5.60;;
43843;SDS011;29497;48.046;7.864;2022-08-30T14:29:00;8.43;;;6.33;;
43843;SDS011;29497;48.046;7.864;2022-08-30T14:31:28;8.63;;;6.17;;
43843;SDS011;29497;48.046;7.864;2022-08-30T14:33:55;6.10;;;5.50;;
43843;SDS011;29497;48.046;7.864;2022-08-30T14:36:22;7.10;;;6.00;;
43843;SDS011;29497;48.046;7.864;2022-08-30T14:38:48;6.97;;;5.60;;
43843;SDS011;29497;48.046;7.864;2022-08-30T14:41:16;7.43;;;5.50;;
43843;SDS011;29497;48.046;7.864;2022-08-30T14:43:43;9.23;;;6.00;;
43843;SDS011;29497;48.046;7.864;2022-08-30T14:46:09;7.63;;;5.77;;
43843;SDS011;29497;48.046;7.864;2022-08-30T14:48:36;7.60;;;5.90;;
43843;SDS011;29497;48.046;7.864;2022-08-30T14:51:10;6.70;;;5.37;;
43843;SDS011;29497;48.046;7.864;2022-08-30T14:53:38;6.07;;;5.30;;
43843;SDS011;29497;48.046;7.864;2022-08-30T14:56:05;7.87;;;5.47;;
43843;SDS011;29497;48.046;7.864;2022-08-30T14:58:34;6.50;;;5.70;;
43843;SDS011;29497;48.046;7.864;2022-08-30T15:01:01;8.67;;;5.87;;
43843;SDS011;29497;48.046;7.864;2022-08-30T15:03:32;6.87;;;5.13;;
43843;SDS011;29497;48.046;7.864;2022-08-30T15:05:59;7.50;;;5.77;;
43843;SDS011;29497;48.046;7.864;2022-08-30T15:08:25;5.90;;;5.30;;
43843;SDS011;29497;48.046;7.864;2022-08-30T15:10:52;7.63;;;5.60;;
43843;SDS011;29497;48.046;7.864;2022-08-30T15:13:18;7.20;;;6.20;;
43843;SDS011;29497;48.046;7.864;2022-08-30T15:15:46;6.00;;;5.40;;
43843;SDS011;29497;48.046;7.864;2022-08-30T15:18:13;6.50;;;5.47;;
43843;SDS011;29497;48.046;7.864;2022-08-30T15:20:43;6.40;;;5.80;;
43843;SDS011;29497;48.046;7.864;2022-08-30T15:23:10;8.47;;;5.30;;
43843;SDS011;29497;48.046;7.864;2022-08-30T15:25:37;6.20;;;5.60;;
43843;SDS011;29497;48.046;7.864;2022-08-30T15:28:04;6.07;;;5.30;;